sensor_id;sensor_type;location;lat;lon;timestamp;temperature;humidity
5200;DHT22;2619;47.868;11.892;2022-11-25T00:01:11;-1.20;99.90
5200;DHT22;2619;47.868;11.892;2022-11-25T00:03:38;-1.20;99.90
5200;DHT22;2619;47.868;11.892;2022-11-25T00:06:18;-1.30;99.90
5200;DHT22;2619;47.868;11.892;2022-11-25T00:08:46;-1.40;99.90
5200;DHT22;2619;47.868;11.892;2022-11-25T00:11:13;-1.40;99.90
5200;DHT22;2619;47.868;11.892;2022-11-25T00:13:39;-1.40;99.90
5200;DHT22;2619;47.868;11.892;2022-11-25T00:16:07;-1.40;99.90
5200;DHT22;2619;47.868;11.892;2022-11-25T00:18:33;-1.30;99.90
5200;DHT22;2619;47.868;11.892;2022-11-25T00:21:07;-1.30;99.90
5200;DHT22;2619;47.868;11.892;2022-11-25T00:23:34;-1.40;99.90
5200;DHT22;2619;47.868;11.892;2022-11-25T00:26:13;-1.50;99.90
5200;DHT22;2619;47.868;11.892;2022-11-25T00:28:41;-1.60;99.90
5200;DHT22;2619;47.868;11.892;2022-11-25T00:31:10;-1.70;99.90
5200;DHT22;2619;47.868;11.892;2022-11-25T00:33:37;-1.60;99.90
5200;DHT22;2619;47.868;11.892;2022-11-25T00:36:03;-1.70;99.90
5200;DHT22;2619;47.868;11.892;2022-11-25T00:38:30;-1.60;99.90
5200;DHT22;2619;47.868;11.892;2022-11-25T00:40:55;-1.60;99.90
5200;DHT22;2619;47.868;11.892;2022-11-25T00:43:41;-1.70;99.90
5200;DHT22;2619;47.868;11.892;2022-11-25T00:46:25;-1.70;99.90
5200;DHT22;2619;47.868;11.892;2022-11-25T00:48:50;-1.70;99.90
5200;DHT22;2619;47.868;11.892;2022-11-25T00:51:16;-1.70;99.90
5200;DHT22;2619;47.868;11.892;2022-11-25T00:53:41;-1.60;99.90
5200;DHT22;2619;47.868;11.892;2022-11-25T00:56:07;-1.60;99.90
5200;DHT22;2619;47.868;11.892;2022-11-25T00:58:43;-1.60;99.90
5200;DHT22;2619;47.868;11.892;2022-11-25T01:01:09;-1.70;99.90
5200;DHT22;2619;47.868;11.892;2022-11-25T01:03:36;-1.70;99.90
5200;DHT22;2619;47.868;11.892;2022-11-25T01:06:09;-1.70;99.90
5200;DHT22;2619;47.868;11.892;2022-11-25T01:08:36;-1.70;99.90
5200;DHT22;2619;47.868;11.892;2022-11-25T01:11:07;-1.80;99.90
5200;DHT22;2619;47.868;11.892;2022-11-25T01:13:33;-1.90;99.90
5200;DHT22;2619;47.868;11.892;2022-11-25T01:16:04;-1.80;99.90
5200;DHT22;2619;47.868;11.892;2022-11-25T01:18:30;-1.70;99.90
5200;DHT22;2619;47.868;11.892;2022-11-25T01:21:14;-1.80;99.90
5200;DHT22;2619;47.868;11.892;2022-11-25T01:23:40;-1.80;99.90
5200;DHT22;2619;47.868;11.892;2022-11-25T01:26:09;-1.80;99.90
5200;DHT22;2619;47.868;11.892;2022-11-25T01:28:35;-1.80;99.90
5200;DHT22;2619;47.868;11.892;2022-11-25T01:31:02;-1.90;99.90
5200;DHT22;2619;47.868;11.892;2022-11-25T01:33:29;-1.80;99.90
5200;DHT22;2619;47.868;11.892;2022-11-25T01:38:28;-1.70;99.90
5200;DHT22;2619;47.868;11.892;2022-11-25T01:40:54;-1.80;99.90
5200;DHT22;2619;47.868;11.892;2022-11-25T01:43:20;-1.80;99.90
5200;DHT22;2619;47.868;11.892;2022-11-25T01:45:45;-1.80;99.90
5200;DHT22;2619;47.868;11.892;2022-11-25T01:48:24;-1.80;99.90
5200;DHT22;2619;47.868;11.892;2022-11-25T01:50:53;-1.80;99.90
5200;DHT22;2619;47.868;11.892;2022-11-25T01:53:19;-1.80;99.90
5200;DHT22;2619;47.868;11.892;2022-11-25T01:55:52;-1.70;99.90
5200;DHT22;2619;47.868;11.892;2022-11-25T01:58:27;-1.70;99.90
5200;DHT22;2619;47.868;11.892;2022-11-25T02:00:54;-1.70;99.90
5200;DHT22;2619;47.868;11.892;2022-11-25T02:03:42;-1.70;99.90
5200;DHT22;2619;47.868;11.892;2022-11-25T02:06:15;-1.80;99.90
5200;DHT22;2619;47.868;11.892;2022-11-25T02:08:47;-1.60;99.90
5200;DHT22;2619;47.868;11.892;2022-11-25T02:11:13;-1.50;99.90
5200;DHT22;2619;47.868;11.892;2022-11-25T02:13:40;-1.50;99.90
5200;DHT22;2619;47.868;11.892;2022-11-25T02:16:06;-1.50;99.90
5200;DHT22;2619;47.868;11.892;2022-11-25T02:18:32;-1.60;99.90
5200;DHT22;2619;47.868;11.892;2022-11-25T02:20:58;-1.60;99.90
5200;DHT22;2619;47.868;11.892;2022-11-25T02:23:50;-1.70;99.90
5200;DHT22;2619;47.868;11.892;2022-11-25T02:26:17;-1.60;99.90
5200;DHT22;2619;47.868;11.892;2022-11-25T02:28:43;-1.60;99.90
5200;DHT22;2619;47.868;11.892;2022-11-25T02:31:09;-1.60;99.90
5200;DHT22;2619;47.868;11.892;2022-11-25T02:33:35;-1.70;99.90
5200;DHT22;2619;47.868;11.892;2022-11-25T02:36:03;-1.80;99.90
5200;DHT22;2619;47.868;11.892;2022-11-25T02:44:11;-1.60;99.90
5200;DHT22;2619;47.868;11.892;2022-11-25T02:46:36;-1.50;99.90
5200;DHT22;2619;47.868;11.892;2022-11-25T02:49:02;-1.50;99.90
5200;DHT22;2619;47.868;11.892;2022-11-25T02:51:29;-1.50;99.90
5200;DHT22;2619;47.868;11.892;2022-11-25T02:53:55;-1.40;99.90
5200;DHT22;2619;47.868;11.892;2022-11-25T02:56:23;-1.40;99.90
5200;DHT22;2619;47.868;11.892;2022-11-25T02:58:49;-1.30;99.90
5200;DHT22;2619;47.868;11.892;2022-11-25T03:01:15;-1.20;99.90
5200;DHT22;2619;47.868;11.892;2022-11-25T03:03:40;-1.20;99.90
5200;DHT22;2619;47.868;11.892;2022-11-25T03:06:07;-1.20;99.90
5200;DHT22;2619;47.868;11.892;2022-11-25T03:08:33;-1.20;99.90
5200;DHT22;2619;47.868;11.892;2022-11-25T03:10:59;-1.20;99.90
5200;DHT22;2619;47.868;11.892;2022-11-25T03:13:24;-1.20;99.90
5200;DHT22;2619;47.868;11.892;2022-11-25T03:15:50;-1.20;99.90
5200;DHT22;2619;47.868;11.892;2022-11-25T03:18:15;-1.20;99.90
5200;DHT22;2619;47.868;11.892;2022-11-25T03:20:41;-1.20;99.90
5200;DHT22;2619;47.868;11.892;2022-11-25T03:23:07;-1.20;99.90
5200;DHT22;2619;47.868;11.892;2022-11-25T03:25:33;-1.30;99.90
5200;DHT22;2619;47.868;11.892;2022-11-25T03:28:00;-1.20;99.90
5200;DHT22;2619;47.868;11.892;2022-11-25T03:30:27;-1.20;99.90
5200;DHT22;2619;47.868;11.892;2022-11-25T03:32:53;-1.20;99.90
5200;DHT22;2619;47.868;11.892;2022-11-25T03:35:19;-1.20;99.90
5200;DHT22;2619;47.868;11.892;2022-11-25T03:37:45;-1.20;99.90
5200;DHT22;2619;47.868;11.892;2022-11-25T03:40:12;-1.20;99.90
5200;DHT22;2619;47.868;11.892;2022-11-25T03:42:38;-1.10;99.90
5200;DHT22;2619;47.868;11.892;2022-11-25T03:45:05;-1.10;99.90
5200;DHT22;2619;47.868;11.892;2022-11-25T03:47:31;-1.10;99.90
5200;DHT22;2619;47.868;11.892;2022-11-25T03:49:57;-1.10;99.90
5200;DHT22;2619;47.868;11.892;2022-11-25T03:52:23;-1.00;99.90
5200;DHT22;2619;47.868;11.892;2022-11-25T03:54:48;-0.90;99.90
5200;DHT22;2619;47.868;11.892;2022-11-25T03:57:14;-0.90;99.90
5200;DHT22;2619;47.868;11.892;2022-11-25T03:59:40;-0.90;99.90
5200;DHT22;2619;47.868;11.892;2022-11-25T04:02:05;-0.90;99.90
5200;DHT22;2619;47.868;11.892;2022-11-25T04:04:31;-0.90;99.90
5200;DHT22;2619;47.868;11.892;2022-11-25T04:06:56;-0.90;99.90
5200;DHT22;2619;47.868;11.892;2022-11-25T04:09:22;-0.80;99.90
5200;DHT22;2619;47.868;11.892;2022-11-25T04:11:50;-0.70;99.90
5200;DHT22;2619;47.868;11.892;2022-11-25T04:14:34;-0.70;99.90
5200;DHT22;2619;47.868;11.892;2022-11-25T04:16:59;-0.60;99.90
5200;DHT22;2619;47.868;11.892;2022-11-25T04:19:25;-0.50;99.90
5200;DHT22;2619;47.868;11.892;2022-11-25T04:21:51;-0.50;99.90
5200;DHT22;2619;47.868;11.892;2022-11-25T04:24:17;-0.60;99.90
5200;DHT22;2619;47.868;11.892;2022-11-25T04:26:43;-0.60;99.90
5200;DHT22;2619;47.868;11.892;2022-11-25T04:29:09;-0.60;99.90
5200;DHT22;2619;47.868;11.892;2022-11-25T04:31:34;-0.60;99.90
5200;DHT22;2619;47.868;11.892;2022-11-25T04:34:02;-0.60;99.90
5200;DHT22;2619;47.868;11.892;2022-11-25T04:36:28;-0.50;99.90
5200;DHT22;2619;47.868;11.892;2022-11-25T04:38:53;-0.50;99.90
5200;DHT22;2619;47.868;11.892;2022-11-25T04:41:19;-0.40;99.90
5200;DHT22;2619;47.868;11.892;2022-11-25T04:43:44;-0.40;99.90
5200;DHT22;2619;47.868;11.892;2022-11-25T04:46:15;-0.30;99.90
5200;DHT22;2619;47.868;11.892;2022-11-25T04:48:42;-0.30;99.90
5200;DHT22;2619;47.868;11.892;2022-11-25T04:51:07;-0.30;99.90
5200;DHT22;2619;47.868;11.892;2022-11-25T04:53:33;-0.30;99.90
5200;DHT22;2619;47.868;11.892;2022-11-25T04:55:58;-0.40;99.90
5200;DHT22;2619;47.868;11.892;2022-11-25T04:58:24;-0.50;99.90
5200;DHT22;2619;47.868;11.892;2022-11-25T05:01:08;-0.50;99.90
5200;DHT22;2619;47.868;11.892;2022-11-25T05:03:33;-0.50;99.90
5200;DHT22;2619;47.868;11.892;2022-11-25T05:06:03;-0.40;99.90
5200;DHT22;2619;47.868;11.892;2022-11-25T05:08:29;-0.40;99.90
5200;DHT22;2619;47.868;11.892;2022-11-25T05:10:58;-0.30;99.90
5200;DHT22;2619;47.868;11.892;2022-11-25T05:13:23;-0.40;99.90
5200;DHT22;2619;47.868;11.892;2022-11-25T05:15:49;-0.30;99.90
5200;DHT22;2619;47.868;11.892;2022-11-25T05:18:14;-0.30;99.90
5200;DHT22;2619;47.868;11.892;2022-11-25T05:23:09;-0.30;99.90
5200;DHT22;2619;47.868;11.892;2022-11-25T05:25:35;-0.40;99.90
5200;DHT22;2619;47.868;11.892;2022-11-25T05:28:02;-0.40;99.90
5200;DHT22;2619;47.868;11.892;2022-11-25T05:30:28;-0.50;99.90
5200;DHT22;2619;47.868;11.892;2022-11-25T05:32:53;-0.50;99.90
5200;DHT22;2619;47.868;11.892;2022-11-25T05:35:19;-0.50;99.90
5200;DHT22;2619;47.868;11.892;2022-11-25T05:37:46;-0.50;99.90
5200;DHT22;2619;47.868;11.892;2022-11-25T05:40:12;-0.60;99.90
5200;DHT22;2619;47.868;11.892;2022-11-25T05:42:37;-0.60;99.90
5200;DHT22;2619;47.868;11.892;2022-11-25T05:45:03;-0.70;99.90
5200;DHT22;2619;47.868;11.892;2022-11-25T05:47:30;-0.80;99.90
5200;DHT22;2619;47.868;11.892;2022-11-25T05:49:55;-0.80;99.90
5200;DHT22;2619;47.868;11.892;2022-11-25T05:52:21;-0.80;99.90
5200;DHT22;2619;47.868;11.892;2022-11-25T05:54:46;-0.90;99.90
5200;DHT22;2619;47.868;11.892;2022-11-25T05:57:12;-0.90;99.90
5200;DHT22;2619;47.868;11.892;2022-11-25T05:59:37;-0.90;99.90
5200;DHT22;2619;47.868;11.892;2022-11-25T06:02:03;-1.00;99.90
5200;DHT22;2619;47.868;11.892;2022-11-25T06:04:29;-1.00;99.90
5200;DHT22;2619;47.868;11.892;2022-11-25T06:06:54;-1.10;99.90
5200;DHT22;2619;47.868;11.892;2022-11-25T06:09:20;-1.00;99.90
5200;DHT22;2619;47.868;11.892;2022-11-25T06:11:45;-1.10;99.90
5200;DHT22;2619;47.868;11.892;2022-11-25T06:14:11;-1.00;99.90
5200;DHT22;2619;47.868;11.892;2022-11-25T06:16:36;-1.10;99.90
5200;DHT22;2619;47.868;11.892;2022-11-25T06:19:03;-1.20;99.90
5200;DHT22;2619;47.868;11.892;2022-11-25T06:21:31;-1.20;99.90
5200;DHT22;2619;47.868;11.892;2022-11-25T06:23:57;-1.20;99.90
5200;DHT22;2619;47.868;11.892;2022-11-25T06:26:23;-1.30;99.90
5200;DHT22;2619;47.868;11.892;2022-11-25T06:28:52;-1.50;99.90
5200;DHT22;2619;47.868;11.892;2022-11-25T06:31:20;-1.40;99.90
5200;DHT22;2619;47.868;11.892;2022-11-25T06:33:47;-1.40;99.90
5200;DHT22;2619;47.868;11.892;2022-11-25T06:36:13;-1.40;99.90
5200;DHT22;2619;47.868;11.892;2022-11-25T06:38:50;-1.40;99.90
5200;DHT22;2619;47.868;11.892;2022-11-25T06:41:16;-1.30;99.90
5200;DHT22;2619;47.868;11.892;2022-11-25T06:43:42;-1.40;99.90
5200;DHT22;2619;47.868;11.892;2022-11-25T06:46:11;-1.40;99.90
5200;DHT22;2619;47.868;11.892;2022-11-25T06:48:37;-1.40;99.90
5200;DHT22;2619;47.868;11.892;2022-11-25T06:51:05;-1.50;99.90
5200;DHT22;2619;47.868;11.892;2022-11-25T06:53:32;-1.50;99.90
5200;DHT22;2619;47.868;11.892;2022-11-25T06:58:27;-1.50;99.90
5200;DHT22;2619;47.868;11.892;2022-11-25T07:01:06;-1.50;99.90
5200;DHT22;2619;47.868;11.892;2022-11-25T07:03:33;-1.40;99.90
5200;DHT22;2619;47.868;11.892;2022-11-25T07:05:59;-1.30;99.90
5200;DHT22;2619;47.868;11.892;2022-11-25T07:08:25;-1.10;99.90
5200;DHT22;2619;47.868;11.892;2022-11-25T07:10:51;-0.90;99.90
5200;DHT22;2619;47.868;11.892;2022-11-25T07:13:18;-0.70;99.90
5200;DHT22;2619;47.868;11.892;2022-11-25T07:15:44;-0.50;99.90
5200;DHT22;2619;47.868;11.892;2022-11-25T07:18:10;-0.40;99.90
5200;DHT22;2619;47.868;11.892;2022-11-25T07:20:37;-0.30;99.90
5200;DHT22;2619;47.868;11.892;2022-11-25T07:23:02;-0.20;99.90
5200;DHT22;2619;47.868;11.892;2022-11-25T07:25:28;0.00;99.90
5200;DHT22;2619;47.868;11.892;2022-11-25T07:27:53;0.10;99.90
5200;DHT22;2619;47.868;11.892;2022-11-25T07:30:19;0.10;99.90
5200;DHT22;2619;47.868;11.892;2022-11-25T07:32:45;0.30;99.90
5200;DHT22;2619;47.868;11.892;2022-11-25T07:35:10;0.30;99.90
5200;DHT22;2619;47.868;11.892;2022-11-25T07:37:36;0.40;99.90
5200;DHT22;2619;47.868;11.892;2022-11-25T07:40:02;0.50;99.90
5200;DHT22;2619;47.868;11.892;2022-11-25T07:42:27;0.60;99.90
5200;DHT22;2619;47.868;11.892;2022-11-25T07:44:53;0.70;99.90
5200;DHT22;2619;47.868;11.892;2022-11-25T07:47:18;0.70;99.90
5200;DHT22;2619;47.868;11.892;2022-11-25T07:49:44;0.80;99.90
5200;DHT22;2619;47.868;11.892;2022-11-25T07:52:10;0.90;99.90
5200;DHT22;2619;47.868;11.892;2022-11-25T07:54:35;0.90;99.90
5200;DHT22;2619;47.868;11.892;2022-11-25T07:57:01;1.00;99.90
5200;DHT22;2619;47.868;11.892;2022-11-25T07:59:26;1.10;99.90
5200;DHT22;2619;47.868;11.892;2022-11-25T08:01:53;1.10;99.90
5200;DHT22;2619;47.868;11.892;2022-11-25T08:04:20;1.20;99.90
5200;DHT22;2619;47.868;11.892;2022-11-25T08:06:47;1.30;99.90
5200;DHT22;2619;47.868;11.892;2022-11-25T08:09:15;1.30;99.90
5200;DHT22;2619;47.868;11.892;2022-11-25T08:11:44;1.30;99.90
5200;DHT22;2619;47.868;11.892;2022-11-25T08:14:10;1.50;99.90
5200;DHT22;2619;47.868;11.892;2022-11-25T08:16:36;1.50;99.90
5200;DHT22;2619;47.868;11.892;2022-11-25T08:19:07;1.70;99.90
5200;DHT22;2619;47.868;11.892;2022-11-25T08:21:33;1.80;99.90
5200;DHT22;2619;47.868;11.892;2022-11-25T08:23:59;1.90;99.90
5200;DHT22;2619;47.868;11.892;2022-11-25T08:26:31;2.00;99.90
5200;DHT22;2619;47.868;11.892;2022-11-25T08:28:59;2.20;99.90
5200;DHT22;2619;47.868;11.892;2022-11-25T08:31:31;2.30;99.90
5200;DHT22;2619;47.868;11.892;2022-11-25T08:33:57;2.30;99.90
5200;DHT22;2619;47.868;11.892;2022-11-25T08:36:24;2.30;99.90
5200;DHT22;2619;47.868;11.892;2022-11-25T08:38:54;2.20;99.90
5200;DHT22;2619;47.868;11.892;2022-11-25T08:41:26;2.30;99.90
5200;DHT22;2619;47.868;11.892;2022-11-25T08:43:53;2.40;99.90
5200;DHT22;2619;47.868;11.892;2022-11-25T08:46:21;2.50;99.90
5200;DHT22;2619;47.868;11.892;2022-11-25T08:48:47;2.60;99.90
5200;DHT22;2619;47.868;11.892;2022-11-25T08:51:16;2.80;99.90
5200;DHT22;2619;47.868;11.892;2022-11-25T08:53:43;2.80;99.90
5200;DHT22;2619;47.868;11.892;2022-11-25T08:56:09;2.90;99.90
5200;DHT22;2619;47.868;11.892;2022-11-25T08:58:35;2.90;99.90
5200;DHT22;2619;47.868;11.892;2022-11-25T09:01:02;3.10;99.90
5200;DHT22;2619;47.868;11.892;2022-11-25T09:03:30;3.10;99.90
5200;DHT22;2619;47.868;11.892;2022-11-25T09:05:56;3.10;99.90
5200;DHT22;2619;47.868;11.892;2022-11-25T09:08:22;3.20;99.90
5200;DHT22;2619;47.868;11.892;2022-11-25T09:10:47;3.20;99.90
5200;DHT22;2619;47.868;11.892;2022-11-25T09:13:13;3.30;99.90
5200;DHT22;2619;47.868;11.892;2022-11-25T09:15:38;3.40;99.90
5200;DHT22;2619;47.868;11.892;2022-11-25T09:18:06;3.60;99.90
5200;DHT22;2619;47.868;11.892;2022-11-25T09:20:33;3.70;99.90
5200;DHT22;2619;47.868;11.892;2022-11-25T09:23:00;3.70;99.90
5200;DHT22;2619;47.868;11.892;2022-11-25T09:25:27;3.80;99.90
5200;DHT22;2619;47.868;11.892;2022-11-25T09:27:53;4.00;99.90
5200;DHT22;2619;47.868;11.892;2022-11-25T09:30:19;3.90;99.90
5200;DHT22;2619;47.868;11.892;2022-11-25T09:32:48;4.00;99.90
5200;DHT22;2619;47.868;11.892;2022-11-25T09:35:14;4.10;99.90
5200;DHT22;2619;47.868;11.892;2022-11-25T09:37:39;4.10;99.90
5200;DHT22;2619;47.868;11.892;2022-11-25T09:40:07;4.20;99.90
5200;DHT22;2619;47.868;11.892;2022-11-25T09:42:53;4.30;99.90
5200;DHT22;2619;47.868;11.892;2022-11-25T09:45:55;4.50;99.90
5200;DHT22;2619;47.868;11.892;2022-11-25T09:49:17;4.70;99.90
5200;DHT22;2619;47.868;11.892;2022-11-25T09:51:40;4.90;99.90
5200;DHT22;2619;47.868;11.892;2022-11-25T09:54:18;4.80;99.90
5200;DHT22;2619;47.868;11.892;2022-11-25T09:56:55;4.70;99.90
5200;DHT22;2619;47.868;11.892;2022-11-25T09:59:33;4.80;99.90
5200;DHT22;2619;47.868;11.892;2022-11-25T10:02:08;4.80;99.90
5200;DHT22;2619;47.868;11.892;2022-11-25T10:04:47;4.90;99.90
5200;DHT22;2619;47.868;11.892;2022-11-25T10:07:20;4.90;99.90
5200;DHT22;2619;47.868;11.892;2022-11-25T10:09:47;5.00;99.90
5200;DHT22;2619;47.868;11.892;2022-11-25T10:12:27;5.00;99.90
5200;DHT22;2619;47.868;11.892;2022-11-25T10:14:59;5.20;99.90
5200;DHT22;2619;47.868;11.892;2022-11-25T10:17:41;5.10;99.90
5200;DHT22;2619;47.868;11.892;2022-11-25T10:23:01;5.30;99.90
5200;DHT22;2619;47.868;11.892;2022-11-25T10:25:30;5.40;99.90
5200;DHT22;2619;47.868;11.892;2022-11-25T10:30:35;5.60;99.90
5200;DHT22;2619;47.868;11.892;2022-11-25T10:33:13;5.70;99.90
5200;DHT22;2619;47.868;11.892;2022-11-25T10:35:52;5.80;99.90
5200;DHT22;2619;47.868;11.892;2022-11-25T10:38:28;5.90;99.90
5200;DHT22;2619;47.868;11.892;2022-11-25T10:40:55;6.00;99.90
5200;DHT22;2619;47.868;11.892;2022-11-25T10:43:21;6.00;99.90
5200;DHT22;2619;47.868;11.892;2022-11-25T10:46:02;5.90;99.90
5200;DHT22;2619;47.868;11.892;2022-11-25T10:51:48;5.90;99.90
5200;DHT22;2619;47.868;11.892;2022-11-25T10:54:24;6.00;99.90
5200;DHT22;2619;47.868;11.892;2022-11-25T10:56:53;6.10;99.90
5200;DHT22;2619;47.868;11.892;2022-11-25T10:59:30;6.10;99.90
5200;DHT22;2619;47.868;11.892;2022-11-25T11:02:28;6.20;99.90
5200;DHT22;2619;47.868;11.892;2022-11-25T11:07:40;6.30;99.90
5200;DHT22;2619;47.868;11.892;2022-11-25T11:20:51;6.40;99.90
5200;DHT22;2619;47.868;11.892;2022-11-25T11:23:17;6.40;99.90
5200;DHT22;2619;47.868;11.892;2022-11-25T11:33:42;6.60;99.90
5200;DHT22;2619;47.868;11.892;2022-11-25T11:39:00;6.70;99.90
5200;DHT22;2619;47.868;11.892;2022-11-25T11:41:38;6.60;99.90
5200;DHT22;2619;47.868;11.892;2022-11-25T11:44:30;6.50;99.90
5200;DHT22;2619;47.868;11.892;2022-11-25T11:47:22;6.60;99.90
5200;DHT22;2619;47.868;11.892;2022-11-25T11:52:41;7.00;99.90
5200;DHT22;2619;47.868;11.892;2022-11-25T12:06:30;8.00;99.90
5200;DHT22;2619;47.868;11.892;2022-11-25T12:09:07;7.70;99.90
5200;DHT22;2619;47.868;11.892;2022-11-25T12:11:40;7.70;99.90
5200;DHT22;2619;47.868;11.892;2022-11-25T12:14:20;7.60;99.90
5200;DHT22;2619;47.868;11.892;2022-11-25T12:16:58;7.30;99.90
5200;DHT22;2619;47.868;11.892;2022-11-25T12:22:26;7.30;99.90
5200;DHT22;2619;47.868;11.892;2022-11-25T12:25:00;7.30;99.90
5200;DHT22;2619;47.868;11.892;2022-11-25T12:27:41;7.20;99.90
5200;DHT22;2619;47.868;11.892;2022-11-25T12:30:21;7.10;99.90
5200;DHT22;2619;47.868;11.892;2022-11-25T12:33:03;7.40;99.90
5200;DHT22;2619;47.868;11.892;2022-11-25T12:38:49;7.80;99.90
5200;DHT22;2619;47.868;11.892;2022-11-25T12:46:52;8.10;99.90
5200;DHT22;2619;47.868;11.892;2022-11-25T12:49:24;8.10;99.90
5200;DHT22;2619;47.868;11.892;2022-11-25T13:00:23;7.70;99.90
5200;DHT22;2619;47.868;11.892;2022-11-25T13:14:26;7.10;99.90
5200;DHT22;2619;47.868;11.892;2022-11-25T13:16:53;7.10;99.90
5200;DHT22;2619;47.868;11.892;2022-11-25T13:19:21;7.00;99.90
5200;DHT22;2619;47.868;11.892;2022-11-25T13:24:47;6.90;99.90
5200;DHT22;2619;47.868;11.892;2022-11-25T13:27:32;6.90;99.90
5200;DHT22;2619;47.868;11.892;2022-11-25T13:49:06;6.40;99.90
5200;DHT22;2619;47.868;11.892;2022-11-25T13:51:53;6.30;99.90
5200;DHT22;2619;47.868;11.892;2022-11-25T13:54:24;6.20;99.90
5200;DHT22;2619;47.868;11.892;2022-11-25T14:00:00;6.10;99.90
5200;DHT22;2619;47.868;11.892;2022-11-25T14:10:30;6.20;99.90
5200;DHT22;2619;47.868;11.892;2022-11-25T14:24:28;7.30;99.90
5200;DHT22;2619;47.868;11.892;2022-11-25T14:26:56;7.40;99.90
5200;DHT22;2619;47.868;11.892;2022-11-25T14:29:36;7.40;99.90
5200;DHT22;2619;47.868;11.892;2022-11-25T14:32:13;7.50;99.90
5200;DHT22;2619;47.868;11.892;2022-11-25T14:34:46;7.50;99.90
5200;DHT22;2619;47.868;11.892;2022-11-25T14:37:36;7.50;99.90
5200;DHT22;2619;47.868;11.892;2022-11-25T14:42:37;7.60;99.90
5200;DHT22;2619;47.868;11.892;2022-11-25T14:45:28;7.50;99.90
5200;DHT22;2619;47.868;11.892;2022-11-25T14:47:55;7.40;99.90
5200;DHT22;2619;47.868;11.892;2022-11-25T14:50:21;7.40;99.90
5200;DHT22;2619;47.868;11.892;2022-11-25T14:52:47;7.40;99.90
5200;DHT22;2619;47.868;11.892;2022-11-25T14:55:23;7.40;99.90
5200;DHT22;2619;47.868;11.892;2022-11-25T14:57:51;7.40;99.90
5200;DHT22;2619;47.868;11.892;2022-11-25T15:00:17;7.30;99.90
5200;DHT22;2619;47.868;11.892;2022-11-25T15:02:56;7.30;99.90
5200;DHT22;2619;47.868;11.892;2022-11-25T15:05:24;7.20;99.90
5200;DHT22;2619;47.868;11.892;2022-11-25T15:10:32;7.10;99.90
5200;DHT22;2619;47.868;11.892;2022-11-25T15:12:59;7.10;99.90
5200;DHT22;2619;47.868;11.892;2022-11-25T15:15:26;7.10;99.90
5200;DHT22;2619;47.868;11.892;2022-11-25T15:17:52;7.10;99.90
5200;DHT22;2619;47.868;11.892;2022-11-25T15:20:19;7.00;99.90
5200;DHT22;2619;47.868;11.892;2022-11-25T15:22:47;7.00;99.90
5200;DHT22;2619;47.868;11.892;2022-11-25T15:25:14;6.90;99.90
5200;DHT22;2619;47.868;11.892;2022-11-25T15:27:58;7.00;99.90
5200;DHT22;2619;47.868;11.892;2022-11-25T15:30:26;6.90;99.90
5200;DHT22;2619;47.868;11.892;2022-11-25T15:32:54;6.80;99.90
5200;DHT22;2619;47.868;11.892;2022-11-25T15:35:22;6.80;99.90
5200;DHT22;2619;47.868;11.892;2022-11-25T15:37:49;6.80;99.90
5200;DHT22;2619;47.868;11.892;2022-11-25T15:40:30;6.80;99.90
5200;DHT22;2619;47.868;11.892;2022-11-25T15:43:01;6.80;99.90
5200;DHT22;2619;47.868;11.892;2022-11-25T15:45:47;6.70;99.90
5200;DHT22;2619;47.868;11.892;2022-11-25T15:48:21;6.70;99.90
5200;DHT22;2619;47.868;11.892;2022-11-25T15:50:49;6.70;99.90
5200;DHT22;2619;47.868;11.892;2022-11-25T15:53:25;6.80;99.90
5200;DHT22;2619;47.868;11.892;2022-11-25T15:55:51;6.70;99.90
5200;DHT22;2619;47.868;11.892;2022-11-25T15:58:20;6.70;99.90
5200;DHT22;2619;47.868;11.892;2022-11-25T16:01:03;6.60;99.90
5200;DHT22;2619;47.868;11.892;2022-11-25T16:03:30;6.50;99.90
5200;DHT22;2619;47.868;11.892;2022-11-25T16:05:58;6.40;99.90
5200;DHT22;2619;47.868;11.892;2022-11-25T16:13:37;6.40;99.90
5200;DHT22;2619;47.868;11.892;2022-11-25T16:18:42;6.60;99.90
5200;DHT22;2619;47.868;11.892;2022-11-25T16:21:12;6.60;99.90
5200;DHT22;2619;47.868;11.892;2022-11-25T16:23:46;6.70;99.90
5200;DHT22;2619;47.868;11.892;2022-11-25T16:26:14;6.70;99.90
5200;DHT22;2619;47.868;11.892;2022-11-25T16:28:51;6.70;99.90
5200;DHT22;2619;47.868;11.892;2022-11-25T16:31:17;6.80;99.90
5200;DHT22;2619;47.868;11.892;2022-11-25T16:33:43;6.80;99.90
5200;DHT22;2619;47.868;11.892;2022-11-25T16:36:08;6.80;99.90
5200;DHT22;2619;47.868;11.892;2022-11-25T16:38:34;6.80;99.90
5200;DHT22;2619;47.868;11.892;2022-11-25T16:41:08;6.80;99.90
5200;DHT22;2619;47.868;11.892;2022-11-25T16:43:36;6.80;99.90
5200;DHT22;2619;47.868;11.892;2022-11-25T16:46:03;6.70;99.90
5200;DHT22;2619;47.868;11.892;2022-11-25T16:48:29;6.90;99.90
5200;DHT22;2619;47.868;11.892;2022-11-25T16:50:55;6.90;99.90
5200;DHT22;2619;47.868;11.892;2022-11-25T16:53:21;6.80;99.90
5200;DHT22;2619;47.868;11.892;2022-11-25T16:55:47;6.80;99.90
5200;DHT22;2619;47.868;11.892;2022-11-25T16:58:23;6.80;99.90
5200;DHT22;2619;47.868;11.892;2022-11-25T17:00:54;6.80;99.90
5200;DHT22;2619;47.868;11.892;2022-11-25T17:03:21;6.80;99.90
5200;DHT22;2619;47.868;11.892;2022-11-25T17:05:51;6.80;99.90
5200;DHT22;2619;47.868;11.892;2022-11-25T17:08:17;6.80;99.90
5200;DHT22;2619;47.868;11.892;2022-11-25T17:10:43;6.80;99.90
5200;DHT22;2619;47.868;11.892;2022-11-25T17:13:19;6.70;99.90
5200;DHT22;2619;47.868;11.892;2022-11-25T17:15:48;6.60;99.90
5200;DHT22;2619;47.868;11.892;2022-11-25T17:18:15;6.60;99.90
5200;DHT22;2619;47.868;11.892;2022-11-25T17:20:43;6.70;99.90
5200;DHT22;2619;47.868;11.892;2022-11-25T17:23:14;6.70;99.90
5200;DHT22;2619;47.868;11.892;2022-11-25T17:25:43;6.70;99.90
5200;DHT22;2619;47.868;11.892;2022-11-25T17:28:16;6.70;99.90
5200;DHT22;2619;47.868;11.892;2022-11-25T17:30:44;6.70;99.90
5200;DHT22;2619;47.868;11.892;2022-11-25T17:33:15;6.70;99.90
5200;DHT22;2619;47.868;11.892;2022-11-25T17:35:41;6.70;99.90
5200;DHT22;2619;47.868;11.892;2022-11-25T17:38:14;6.70;99.90
5200;DHT22;2619;47.868;11.892;2022-11-25T17:40:41;6.70;99.90
5200;DHT22;2619;47.868;11.892;2022-11-25T17:43:14;6.70;99.90
5200;DHT22;2619;47.868;11.892;2022-11-25T17:45:40;6.70;99.90
5200;DHT22;2619;47.868;11.892;2022-11-25T17:48:11;6.70;99.90
5200;DHT22;2619;47.868;11.892;2022-11-25T17:50:37;6.60;99.90
5200;DHT22;2619;47.868;11.892;2022-11-25T17:53:03;6.70;99.90
5200;DHT22;2619;47.868;11.892;2022-11-25T17:55:30;6.70;99.90
5200;DHT22;2619;47.868;11.892;2022-11-25T17:57:56;6.70;99.90
5200;DHT22;2619;47.868;11.892;2022-11-25T18:00:22;6.70;99.90
5200;DHT22;2619;47.868;11.892;2022-11-25T18:02:48;6.70;99.90
5200;DHT22;2619;47.868;11.892;2022-11-25T18:05:16;6.70;99.90
5200;DHT22;2619;47.868;11.892;2022-11-25T18:07:43;6.70;99.90
5200;DHT22;2619;47.868;11.892;2022-11-25T18:10:16;6.80;99.90
5200;DHT22;2619;47.868;11.892;2022-11-25T18:12:44;6.80;99.90
5200;DHT22;2619;47.868;11.892;2022-11-25T18:15:30;6.70;99.90
5200;DHT22;2619;47.868;11.892;2022-11-25T18:18:17;6.70;99.90
5200;DHT22;2619;47.868;11.892;2022-11-25T18:20:43;6.70;99.90
5200;DHT22;2619;47.868;11.892;2022-11-25T18:23:09;6.70;99.90
5200;DHT22;2619;47.868;11.892;2022-11-25T18:25:34;6.70;99.90
5200;DHT22;2619;47.868;11.892;2022-11-25T18:28:01;6.70;99.90
5200;DHT22;2619;47.868;11.892;2022-11-25T18:30:29;6.70;99.90
5200;DHT22;2619;47.868;11.892;2022-11-25T18:32:55;6.70;99.90
5200;DHT22;2619;47.868;11.892;2022-11-25T18:35:29;6.70;99.90
5200;DHT22;2619;47.868;11.892;2022-11-25T18:37:55;6.60;99.90